sensor_id;sensor_type;location;lat;lon;timestamp;pressure;altitude;pressure_sealevel;temperature;humidity
40574;BME280;26283;49.020;8.644;2023-02-10T00:01:17;101170.62;;;6.50;52.04
40574;BME280;26283;49.020;8.644;2023-02-10T00:03:42;101162.59;;;6.50;52.07
40574;BME280;26283;49.020;8.644;2023-02-10T00:06:09;101164.44;;;6.50;52.02
40574;BME280;26283;49.020;8.644;2023-02-10T00:08:35;101169.78;;;6.50;52.07
40574;BME280;26283;49.020;8.644;2023-02-10T00:11:03;101167.28;;;6.48;52.07
40574;BME280;26283;49.020;8.644;2023-02-10T00:13:30;101172.63;;;6.48;52.12
40574;BME280;26283;49.020;8.644;2023-02-10T00:15:59;101165.72;;;6.46;52.03
40574;BME280;26283;49.020;8.644;2023-02-10T00:18:25;101168.41;;;6.46;52.18
40574;BME280;26283;49.020;8.644;2023-02-10T00:20:51;101172.06;;;6.45;52.08
40574;BME280;26283;49.020;8.644;2023-02-10T00:23:16;101178.28;;;6.45;52.01
40574;BME280;26283;49.020;8.644;2023-02-10T00:25:42;101173.91;;;6.44;52.11
40574;BME280;26283;49.020;8.644;2023-02-10T00:28:07;101177.56;;;6.43;52.11
40574;BME280;26283;49.020;8.644;2023-02-10T00:30:33;101180.25;;;6.43;52.20
40574;BME280;26283;49.020;8.644;2023-02-10T00:32:59;101180.25;;;6.43;52.14
40574;BME280;26283;49.020;8.644;2023-02-10T00:35:24;101179.41;;;6.43;52.12
40574;BME280;26283;49.020;8.644;2023-02-10T00:37:50;101182.37;;;6.40;52.15
40574;BME280;26283;49.020;8.644;2023-02-10T00:40:15;101181.38;;;6.41;52.15
40574;BME280;26283;49.020;8.644;2023-02-10T00:42:41;101182.37;;;6.40;52.19
40574;BME280;26283;49.020;8.644;2023-02-10T00:45:07;101178.84;;;6.39;52.18
40574;BME280;26283;49.020;8.644;2023-02-10T00:47:32;101181.66;;;6.38;52.11
40574;BME280;26283;49.020;8.644;2023-02-10T00:49:58;101189.69;;;6.38;52.16
40574;BME280;26283;49.020;8.644;2023-02-10T00:52:23;101199.56;;;6.37;52.13
40574;BME280;26283;49.020;8.644;2023-02-10T00:54:49;101195.19;;;6.36;52.19
40574;BME280;26283;49.020;8.644;2023-02-10T00:57:14;101193.37;;;6.37;52.23
40574;BME280;26283;49.020;8.644;2023-02-10T00:59:39;101201.69;;;6.34;52.25
40574;BME280;26283;49.020;8.644;2023-02-10T01:02:05;101200.84;;;6.33;52.26
40574;BME280;26283;49.020;8.644;2023-02-10T01:04:31;101192.81;;;6.33;52.24
40574;BME280;26283;49.020;8.644;2023-02-10T01:06:57;101193.78;;;6.32;52.28
40574;BME280;26283;49.020;8.644;2023-02-10T01:09:22;101193.78;;;6.32;52.32
40574;BME280;26283;49.020;8.644;2023-02-10T01:11:48;101198.31;;;6.32;52.32
40574;BME280;26283;49.020;8.644;2023-02-10T01:14:13;101200.97;;;6.32;52.32
40574;BME280;26283;49.020;8.644;2023-02-10T01:16:39;101199.28;;;6.31;52.36
40574;BME280;26283;49.020;8.644;2023-02-10T01:19:05;101205.63;;;6.30;52.35
40574;BME280;26283;49.020;8.644;2023-02-10T01:21:32;101206.63;;;6.29;52.35
40574;BME280;26283;49.020;8.644;2023-02-10T01:23:58;101204.97;;;6.28;52.36
40574;BME280;26283;49.020;8.644;2023-02-10T01:26:23;101211.31;;;6.27;52.49
40574;BME280;26283;49.020;8.644;2023-02-10T01:28:48;101209.63;;;6.26;52.42
40574;BME280;26283;49.020;8.644;2023-02-10T01:31:19;101221.16;;;6.26;52.43
40574;BME280;26283;49.020;8.644;2023-02-10T01:33:45;101223.00;;;6.26;52.45
40574;BME280;26283;49.020;8.644;2023-02-10T01:36:13;101223.16;;;6.24;52.42
40574;BME280;26283;49.020;8.644;2023-02-10T01:38:39;101231.31;;;6.23;52.43
40574;BME280;26283;49.020;8.644;2023-02-10T01:41:05;101235.81;;;6.22;52.47
40574;BME280;26283;49.020;8.644;2023-02-10T01:43:31;101241.19;;;6.22;52.47
40574;BME280;26283;49.020;8.644;2023-02-10T01:45:57;101249.22;;;6.22;52.49
40574;BME280;26283;49.020;8.644;2023-02-10T01:48:24;101240.34;;;6.22;52.51
40574;BME280;26283;49.020;8.644;2023-02-10T01:50:54;101243.00;;;6.22;52.54
40574;BME280;26283;49.020;8.644;2023-02-10T01:53:22;101247.66;;;6.19;52.62
40574;BME280;26283;49.020;8.644;2023-02-10T01:55:51;101247.66;;;6.19;52.53
40574;BME280;26283;49.020;8.644;2023-02-10T01:58:21;101252.31;;;6.17;52.57
40574;BME280;26283;49.020;8.644;2023-02-10T02:00:47;101251.47;;;6.17;52.42
40574;BME280;26283;49.020;8.644;2023-02-10T02:03:13;101251.47;;;6.17;52.38
40574;BME280;26283;49.020;8.644;2023-02-10T02:05:40;101246.94;;;6.17;52.42
40574;BME280;26283;49.020;8.644;2023-02-10T02:08:21;101248.78;;;6.17;52.42
40574;BME280;26283;49.020;8.644;2023-02-10T02:13:52;101242.72;;;6.15;52.39
40574;BME280;26283;49.020;8.644;2023-02-10T02:19:34;101245.69;;;6.12;52.50
40574;BME280;26283;49.020;8.644;2023-02-10T02:22:31;101243.16;;;6.10;52.60
40574;BME280;26283;49.020;8.644;2023-02-10T02:33:54;101244.41;;;6.06;52.22
40574;BME280;26283;49.020;8.644;2023-02-10T02:36:29;101243.72;;;6.04;52.42
40574;BME280;26283;49.020;8.644;2023-02-10T02:38:59;101237.53;;;6.04;52.46
40574;BME280;26283;49.020;8.644;2023-02-10T02:41:26;101242.03;;;6.03;52.46
40574;BME280;26283;49.020;8.644;2023-02-10T02:43:52;101236.69;;;6.03;52.52
40574;BME280;26283;49.020;8.644;2023-02-10T02:46:34;101231.47;;;6.02;52.51
40574;BME280;26283;49.020;8.644;2023-02-10T02:49:26;101235.00;;;6.02;52.70
40574;BME280;26283;49.020;8.644;2023-02-10T02:52:00;101244.00;;;6.01;52.72
40574;BME280;26283;49.020;8.644;2023-02-10T02:54:52;101236.13;;;6.00;52.51
40574;BME280;26283;49.020;8.644;2023-02-10T03:00:04;101243.31;;;5.99;52.71
40574;BME280;26283;49.020;8.644;2023-02-10T03:02:31;101243.44;;;5.98;52.77
40574;BME280;26283;49.020;8.644;2023-02-10T03:04:58;101246.25;;;5.96;52.61
40574;BME280;26283;49.020;8.644;2023-02-10T03:07:24;101248.94;;;5.96;52.64
40574;BME280;26283;49.020;8.644;2023-02-10T03:09:49;101254.16;;;5.98;52.72
40574;BME280;26283;49.020;8.644;2023-02-10T03:12:15;101252.44;;;5.97;52.77
40574;BME280;26283;49.020;8.644;2023-02-10T03:14:40;101251.59;;;5.96;52.85
40574;BME280;26283;49.020;8.644;2023-02-10T03:17:06;101257.94;;;5.95;52.77
40574;BME280;26283;49.020;8.644;2023-02-10T03:19:31;101263.44;;;5.94;52.75
40574;BME280;26283;49.020;8.644;2023-02-10T03:21:56;101258.09;;;5.94;52.69
40574;BME280;26283;49.020;8.644;2023-02-10T03:24:22;101271.47;;;5.94;52.72
40574;BME280;26283;49.020;8.644;2023-02-10T03:26:47;101273.28;;;5.93;52.65
40574;BME280;26283;49.020;8.644;2023-02-10T03:29:13;101278.66;;;5.93;52.57
40574;BME280;26283;49.020;8.644;2023-02-10T03:31:39;101277.81;;;5.93;52.62
40574;BME280;26283;49.020;8.644;2023-02-10T03:34:04;101280.47;;;5.93;52.56
40574;BME280;26283;49.020;8.644;2023-02-10T03:36:30;101272.44;;;5.93;52.52
40574;BME280;26283;49.020;8.644;2023-02-10T03:38:55;101279.50;;;5.94;52.55
40574;BME280;26283;49.020;8.644;2023-02-10T03:41:21;101280.47;;;5.93;52.48
40574;BME280;26283;49.020;8.644;2023-02-10T03:43:46;101284.97;;;5.92;52.58
40574;BME280;26283;49.020;8.644;2023-02-10T03:46:11;101275.25;;;5.91;52.61
40574;BME280;26283;49.020;8.644;2023-02-10T03:48:37;101275.41;;;5.90;52.64
40574;BME280;26283;49.020;8.644;2023-02-10T03:51:04;101276.38;;;5.89;52.67
40574;BME280;26283;49.020;8.644;2023-02-10T03:53:31;101276.38;;;5.89;52.69
40574;BME280;26283;49.020;8.644;2023-02-10T03:55:57;101276.47;;;5.87;52.61
40574;BME280;26283;49.020;8.644;2023-02-10T03:58:22;101277.34;;;5.87;52.64
40574;BME280;26283;49.020;8.644;2023-02-10T04:00:48;101278.19;;;5.88;52.60
40574;BME280;26283;49.020;8.644;2023-02-10T04:03:14;101272.13;;;5.86;52.66
40574;BME280;26283;49.020;8.644;2023-02-10T04:05:39;101273.94;;;5.85;52.64
40574;BME280;26283;49.020;8.644;2023-02-10T04:08:05;101277.63;;;5.84;52.69
40574;BME280;26283;49.020;8.644;2023-02-10T04:10:30;101277.78;;;5.83;52.71
40574;BME280;26283;49.020;8.644;2023-02-10T04:12:56;101268.06;;;5.82;52.69
40574;BME280;26283;49.020;8.644;2023-02-10T04:15:21;101278.75;;;5.82;52.89
40574;BME280;26283;49.020;8.644;2023-02-10T04:17:47;101274.53;;;5.79;52.92
40574;BME280;26283;49.020;8.644;2023-02-10T04:20:12;101275.66;;;5.77;53.07
40574;BME280;26283;49.020;8.644;2023-02-10T04:22:38;101283.94;;;5.74;53.12
40574;BME280;26283;49.020;8.644;2023-02-10T04:25:04;101275.91;;;5.74;53.19
40574;BME280;26283;49.020;8.644;2023-02-10T04:27:30;101280.56;;;5.72;53.30
40574;BME280;26283;49.020;8.644;2023-02-10T04:29:55;101285.06;;;5.71;53.15
40574;BME280;26283;49.020;8.644;2023-02-10T04:32:21;101285.91;;;5.72;53.24
40574;BME280;26283;49.020;8.644;2023-02-10T04:34:46;101276.31;;;5.69;53.21
40574;BME280;26283;49.020;8.644;2023-02-10T04:37:12;101287.87;;;5.70;53.23
40574;BME280;26283;49.020;8.644;2023-02-10T04:39:37;101281.81;;;5.68;53.28
40574;BME280;26283;49.020;8.644;2023-02-10T04:42:02;101279.12;;;5.68;53.28
40574;BME280;26283;49.020;8.644;2023-02-10T04:44:28;101272.09;;;5.67;53.36
40574;BME280;26283;49.020;8.644;2023-02-10T04:46:53;101275.75;;;5.66;53.31
40574;BME280;26283;49.020;8.644;2023-02-10T04:49:18;101279.28;;;5.66;53.36
40574;BME280;26283;49.020;8.644;2023-02-10T04:51:44;101275.03;;;5.64;53.33
40574;BME280;26283;49.020;8.644;2023-02-10T04:54:09;101276.19;;;5.61;53.41
40574;BME280;26283;49.020;8.644;2023-02-10T04:56:35;101289.56;;;5.61;53.43
40574;BME280;26283;49.020;8.644;2023-02-10T04:59:00;101294.06;;;5.61;53.43
40574;BME280;26283;49.020;8.644;2023-02-10T05:01:25;101299.56;;;5.59;53.52
40574;BME280;26283;49.020;8.644;2023-02-10T05:03:51;101300.41;;;5.60;53.57
40574;BME280;26283;49.020;8.644;2023-02-10T05:06:16;101307.44;;;5.61;53.44
40574;BME280;26283;49.020;8.644;2023-02-10T05:08:42;101314.63;;;5.60;53.44
40574;BME280;26283;49.020;8.644;2023-02-10T05:11:09;101322.66;;;5.60;53.36
40574;BME280;26283;49.020;8.644;2023-02-10T05:13:35;101317.44;;;5.59;53.41
40574;BME280;26283;49.020;8.644;2023-02-10T05:16:00;101320.09;;;5.59;53.24
40574;BME280;26283;49.020;8.644;2023-02-10T05:18:31;101319.97;;;5.60;53.18
40574;BME280;26283;49.020;8.644;2023-02-10T05:20:57;101320.81;;;5.61;53.10
40574;BME280;26283;49.020;8.644;2023-02-10T05:23:23;101334.06;;;5.62;53.08
40574;BME280;26283;49.020;8.644;2023-02-10T05:25:48;101329.69;;;5.61;52.96
40574;BME280;26283;49.020;8.644;2023-02-10T05:28:14;101330.53;;;5.62;52.97
40574;BME280;26283;49.020;8.644;2023-02-10T05:30:40;101334.06;;;5.62;52.88
40574;BME280;26283;49.020;8.644;2023-02-10T05:33:05;101333.22;;;5.62;52.89
40574;BME280;26283;49.020;8.644;2023-02-10T05:35:30;101338.56;;;5.62;52.84
40574;BME280;26283;49.020;8.644;2023-02-10T05:37:56;101338.69;;;5.60;52.77
40574;BME280;26283;49.020;8.644;2023-02-10T05:40:21;101372.47;;;5.61;54.05
40574;BME280;26283;49.020;8.644;2023-02-10T05:42:47;101368.97;;;5.61;54.63
40574;BME280;26283;49.020;8.644;2023-02-10T05:45:14;101377.97;;;5.60;55.00
40574;BME280;26283;49.020;8.644;2023-02-10T05:47:39;101378.94;;;5.59;55.25
40574;BME280;26283;49.020;8.644;2023-02-10T05:50:04;101375.56;;;5.57;55.42
40574;BME280;26283;49.020;8.644;2023-02-10T05:52:30;101387.22;;;5.56;55.58
40574;BME280;26283;49.020;8.644;2023-02-10T05:54:55;101383.72;;;5.55;55.70
40574;BME280;26283;49.020;8.644;2023-02-10T05:57:21;101393.44;;;5.56;55.81
40574;BME280;26283;49.020;8.644;2023-02-10T05:59:46;101378.50;;;5.54;55.91
40574;BME280;26283;49.020;8.644;2023-02-10T06:02:11;101378.22;;;5.57;54.73
40574;BME280;26283;49.020;8.644;2023-02-10T06:04:37;101384.28;;;5.59;54.04
40574;BME280;26283;49.020;8.644;2023-02-10T06:07:02;101384.16;;;5.60;53.60
40574;BME280;26283;49.020;8.644;2023-02-10T06:09:29;101385.00;;;5.61;53.37
40574;BME280;26283;49.020;8.644;2023-02-10T06:11:55;101391.22;;;5.61;53.24
40574;BME280;26283;49.020;8.644;2023-02-10T06:14:20;101386.84;;;5.60;53.18
40574;BME280;26283;49.020;8.644;2023-02-10T06:16:45;101391.34;;;5.60;53.12
40574;BME280;26283;49.020;8.644;2023-02-10T06:19:11;101408.50;;;5.57;54.02
40574;BME280;26283;49.020;8.644;2023-02-10T06:21:36;101408.38;;;5.59;54.83
40574;BME280;26283;49.020;8.644;2023-02-10T06:24:02;101413.72;;;5.59;55.10
40574;BME280;26283;49.020;8.644;2023-02-10T06:26:27;101415.69;;;5.57;55.35
40574;BME280;26283;49.020;8.644;2023-02-10T06:28:53;101417.63;;;5.55;55.53
40574;BME280;26283;49.020;8.644;2023-02-10T06:31:19;101423.84;;;5.55;55.66
40574;BME280;26283;49.020;8.644;2023-02-10T06:33:44;101423.97;;;5.54;55.75
40574;BME280;26283;49.020;8.644;2023-02-10T06:36:10;101423.13;;;5.53;55.85
40574;BME280;26283;49.020;8.644;2023-02-10T06:38:37;101419.72;;;5.51;55.94
40574;BME280;26283;49.020;8.644;2023-02-10T06:41:03;101421.56;;;5.50;56.04
40574;BME280;26283;49.020;8.644;2023-02-10T06:43:28;101428.59;;;5.51;56.13
40574;BME280;26283;49.020;8.644;2023-02-10T06:45:53;101435.78;;;5.51;56.21
40574;BME280;26283;49.020;8.644;2023-02-10T06:48:19;101437.59;;;5.50;56.28
40574;BME280;26283;49.020;8.644;2023-02-10T06:50:44;101440.28;;;5.50;56.34
40574;BME280;26283;49.020;8.644;2023-02-10T06:53:10;101445.75;;;5.49;56.38
40574;BME280;26283;49.020;8.644;2023-02-10T06:55:35;101437.72;;;5.49;56.44
40574;BME280;26283;49.020;8.644;2023-02-10T06:58:01;101438.72;;;5.48;56.50
40574;BME280;26283;49.020;8.644;2023-02-10T07:00:27;101444.91;;;5.48;56.53
40574;BME280;26283;49.020;8.644;2023-02-10T07:02:53;101443.22;;;5.47;56.57
40574;BME280;26283;49.020;8.644;2023-02-10T07:05:19;101443.22;;;5.47;56.63
40574;BME280;26283;49.020;8.644;2023-02-10T07:07:44;101422.66;;;5.48;56.66
40574;BME280;26283;49.020;8.644;2023-02-10T07:10:10;101429.84;;;5.47;56.70
40574;BME280;26283;49.020;8.644;2023-02-10T07:12:37;101433.34;;;5.48;56.72
40574;BME280;26283;49.020;8.644;2023-02-10T07:15:03;101425.34;;;5.48;56.75
40574;BME280;26283;49.020;8.644;2023-02-10T07:17:29;101418.41;;;5.45;56.79
40574;BME280;26283;49.020;8.644;2023-02-10T07:19:54;101429.13;;;5.45;56.83
40574;BME280;26283;49.020;8.644;2023-02-10T07:22:20;101431.78;;;5.45;56.88
40574;BME280;26283;49.020;8.644;2023-02-10T07:24:46;101437.16;;;5.45;56.89
40574;BME280;26283;49.020;8.644;2023-02-10T07:27:11;101429.97;;;5.46;56.93
40574;BME280;26283;49.020;8.644;2023-02-10T07:29:36;101431.78;;;5.45;56.96
40574;BME280;26283;49.020;8.644;2023-02-10T07:32:03;101439.81;;;5.45;56.96
40574;BME280;26283;49.020;8.644;2023-02-10T07:34:28;101438.13;;;5.44;57.00
40574;BME280;26283;49.020;8.644;2023-02-10T07:36:56;101447.00;;;5.45;57.02
40574;BME280;26283;49.020;8.644;2023-02-10T07:39:23;101432.78;;;5.44;57.04
40574;BME280;26283;49.020;8.644;2023-02-10T07:41:49;101439.94;;;5.44;57.08
40574;BME280;26283;49.020;8.644;2023-02-10T07:44:15;101443.47;;;5.44;57.10
40574;BME280;26283;49.020;8.644;2023-02-10T07:46:41;101441.78;;;5.43;57.16
40574;BME280;26283;49.020;8.644;2023-02-10T07:49:06;101442.63;;;5.44;57.19
40574;BME280;26283;49.020;8.644;2023-02-10T07:51:32;101440.94;;;5.43;57.20
40574;BME280;26283;49.020;8.644;2023-02-10T07:53:57;101446.28;;;5.43;57.22
40574;BME280;26283;49.020;8.644;2023-02-10T07:56:23;101447.97;;;5.44;57.25
40574;BME280;26283;49.020;8.644;2023-02-10T07:58:48;101445.44;;;5.42;57.28
40574;BME280;26283;49.020;8.644;2023-02-10T08:01:14;101442.91;;;5.41;57.30
40574;BME280;26283;49.020;8.644;2023-02-10T08:03:39;101445.44;;;5.42;57.32
40574;BME280;26283;49.020;8.644;2023-02-10T08:06:05;101440.06;;;5.42;57.36
40574;BME280;26283;49.020;8.644;2023-02-10T08:08:31;101449.06;;;5.41;57.38
40574;BME280;26283;49.020;8.644;2023-02-10T08:10:57;101446.41;;;5.41;57.39
40574;BME280;26283;49.020;8.644;2023-02-10T08:13:22;101446.41;;;5.41;57.42
40574;BME280;26283;49.020;8.644;2023-02-10T08:15:49;101446.41;;;5.41;57.44
40574;BME280;26283;49.020;8.644;2023-02-10T08:18:14;101436.56;;;5.42;57.46
40574;BME280;26283;49.020;8.644;2023-02-10T08:20:40;101440.06;;;5.42;57.48
40574;BME280;26283;49.020;8.644;2023-02-10T08:23:05;101442.75;;;5.42;57.52
40574;BME280;26283;49.020;8.644;2023-02-10T08:25:31;101442.75;;;5.42;57.53
40574;BME280;26283;49.020;8.644;2023-02-10T08:27:57;101440.94;;;5.43;57.51
40574;BME280;26283;49.020;8.644;2023-02-10T08:30:23;101447.97;;;5.44;57.44
40574;BME280;26283;49.020;8.644;2023-02-10T08:32:49;101446.16;;;5.44;57.34
40574;BME280;26283;49.020;8.644;2023-02-10T08:35:14;101431.06;;;5.43;57.23
40574;BME280;26283;49.020;8.644;2023-02-10T08:37:39;101439.09;;;5.43;57.22
40574;BME280;26283;49.020;8.644;2023-02-10T08:40:05;101439.22;;;5.42;57.23
40574;BME280;26283;49.020;8.644;2023-02-10T08:42:32;101445.72;;;5.39;57.28
40574;BME280;26283;49.020;8.644;2023-02-10T08:44:57;101447.41;;;5.40;57.30
40574;BME280;26283;49.020;8.644;2023-02-10T08:47:23;101454.44;;;5.41;57.32
40574;BME280;26283;49.020;8.644;2023-02-10T08:49:48;101452.59;;;5.42;57.35
40574;BME280;26283;49.020;8.644;2023-02-10T08:52:14;101452.47;;;5.43;57.38
40574;BME280;26283;49.020;8.644;2023-02-10T08:54:39;101447.13;;;5.43;57.40
40574;BME280;26283;49.020;8.644;2023-02-10T08:57:05;101450.66;;;5.44;57.43
40574;BME280;26283;49.020;8.644;2023-02-10T08:59:30;101453.31;;;5.44;57.45
40574;BME280;26283;49.020;8.644;2023-02-10T09:01:55;101455.88;;;5.45;57.45
40574;BME280;26283;49.020;8.644;2023-02-10T09:04:21;101450.50;;;5.45;57.48
40574;BME280;26283;49.020;8.644;2023-02-10T09:06:47;101442.50;;;5.45;57.49
40574;BME280;26283;49.020;8.644;2023-02-10T09:09:15;101442.34;;;5.47;57.49
40574;BME280;26283;49.020;8.644;2023-02-10T09:11:41;101444.06;;;5.48;57.49
40574;BME280;26283;49.020;8.644;2023-02-10T09:14:07;101447.59;;;5.48;57.48
40574;BME280;26283;49.020;8.644;2023-02-10T09:16:33;101451.09;;;5.49;57.48
40574;BME280;26283;49.020;8.644;2023-02-10T09:18:59;101455.34;;;5.51;57.49
40574;BME280;26283;49.020;8.644;2023-02-10T09:21:24;101460.69;;;5.51;57.48
40574;BME280;26283;49.020;8.644;2023-02-10T09:23:50;101459.59;;;5.54;57.50
40574;BME280;26283;49.020;8.644;2023-02-10T09:26:15;101455.94;;;5.55;57.49
40574;BME280;26283;49.020;8.644;2023-02-10T09:28:41;101457.63;;;5.56;57.50
40574;BME280;26283;49.020;8.644;2023-02-10T09:31:08;101462.12;;;5.56;57.50
40574;BME280;26283;49.020;8.644;2023-02-10T09:33:33;101457.63;;;5.56;57.49
40574;BME280;26283;49.020;8.644;2023-02-10T09:36:01;101456.66;;;5.57;57.50
40574;BME280;26283;49.020;8.644;2023-02-10T09:38:26;101458.22;;;5.60;57.50
40574;BME280;26283;49.020;8.644;2023-02-10T09:41:06;101460.87;;;5.60;57.48
40574;BME280;26283;49.020;8.644;2023-02-10T09:43:54;101466.09;;;5.61;57.49
40574;BME280;26283;49.020;8.644;2023-02-10T09:54:22;101477.37;;;5.65;57.46
40574;BME280;26283;49.020;8.644;2023-02-10T09:56:47;101478.22;;;5.65;57.44
40574;BME280;26283;49.020;8.644;2023-02-10T09:59:16;101479.91;;;5.66;57.46
40574;BME280;26283;49.020;8.644;2023-02-10T10:01:47;101478.94;;;5.67;57.45
40574;BME280;26283;49.020;8.644;2023-02-10T10:04:16;101482.44;;;5.68;57.45
40574;BME280;26283;49.020;8.644;2023-02-10T10:07:22;101482.31;;;5.69;57.44
40574;BME280;26283;49.020;8.644;2023-02-10T10:09:58;101486.69;;;5.70;57.44
40574;BME280;26283;49.020;8.644;2023-02-10T10:12:26;101484.72;;;5.72;57.40
40574;BME280;26283;49.020;8.644;2023-02-10T10:14:53;101487.28;;;5.74;57.42
40574;BME280;26283;49.020;8.644;2023-02-10T10:20:03;101479.84;;;5.77;57.39
40574;BME280;26283;49.020;8.644;2023-02-10T10:31:11;101491.84;;;5.83;57.31
40574;BME280;26283;49.020;8.644;2023-02-10T10:33:50;101484.66;;;5.83;57.29
40574;BME280;26283;49.020;8.644;2023-02-10T10:36:19;101486.34;;;5.84;57.27
40574;BME280;26283;49.020;8.644;2023-02-10T10:38:54;101480.84;;;5.86;57.26
40574;BME280;26283;49.020;8.644;2023-02-10T10:41:23;101487.87;;;5.87;57.25
40574;BME280;26283;49.020;8.644;2023-02-10T10:43:52;101492.16;;;5.90;57.24
40574;BME280;26283;49.020;8.644;2023-02-10T10:46:52;101485.97;;;5.89;57.24
40574;BME280;26283;49.020;8.644;2023-02-10T10:49:21;101484.84;;;5.92;57.21
40574;BME280;26283;49.020;8.644;2023-02-10T10:51:46;101492.75;;;5.93;57.15
40574;BME280;26283;49.020;8.644;2023-02-10T10:54:19;101495.28;;;5.95;57.13
40574;BME280;26283;49.020;8.644;2023-02-10T10:56:49;101487.25;;;5.95;57.13
40574;BME280;26283;49.020;8.644;2023-02-10T10:59:20;101481.78;;;5.96;57.11
40574;BME280;26283;49.020;8.644;2023-02-10T11:01:48;101485.16;;;5.98;57.09
40574;BME280;26283;49.020;8.644;2023-02-10T11:04:19;101476.16;;;5.99;57.07
40574;BME280;26283;49.020;8.644;2023-02-10T11:06:48;101476.03;;;6.01;57.05
40574;BME280;26283;49.020;8.644;2023-02-10T11:09:31;101473.09;;;6.04;57.01
40574;BME280;26283;49.020;8.644;2023-02-10T11:12:21;101470.28;;;6.05;56.96
40574;BME280;26283;49.020;8.644;2023-02-10T11:14:48;101466.59;;;6.06;56.95
40574;BME280;26283;49.020;8.644;2023-02-10T11:20:04;101461.94;;;6.08;56.89
40574;BME280;26283;49.020;8.644;2023-02-10T11:22:30;101469.72;;;6.11;56.86
40574;BME280;26283;49.020;8.644;2023-02-10T11:24:58;101463.38;;;6.12;56.81
40574;BME280;26283;49.020;8.644;2023-02-10T11:27:23;101468.31;;;6.17;56.74
40574;BME280;26283;49.020;8.644;2023-02-10T11:29:52;101461.13;;;6.17;56.68
40574;BME280;26283;49.020;8.644;2023-02-10T11:32:23;101459.88;;;6.22;56.64
40574;BME280;26283;49.020;8.644;2023-02-10T11:34:51;101471.31;;;6.24;56.59
40574;BME280;26283;49.020;8.644;2023-02-10T11:37:22;101467.66;;;6.25;56.55
40574;BME280;26283;49.020;8.644;2023-02-10T11:39:49;101470.19;;;6.26;56.50
40574;BME280;26283;49.020;8.644;2023-02-10T11:44:41;101462.84;;;6.28;56.46
40574;BME280;26283;49.020;8.644;2023-02-10T11:47:14;101468.06;;;6.30;56.43
40574;BME280;26283;49.020;8.644;2023-02-10T11:49:46;101466.09;;;6.32;56.41
40574;BME280;26283;49.020;8.644;2023-02-10T11:52:12;101460.75;;;6.32;56.38
40574;BME280;26283;49.020;8.644;2023-02-10T11:54:39;101458.78;;;6.34;56.34
40574;BME280;26283;49.020;8.644;2023-02-10T11:57:41;101459.50;;;6.36;56.31
40574;BME280;26283;49.020;8.644;2023-02-10T12:00:41;101454.00;;;6.37;56.30
40574;BME280;26283;49.020;8.644;2023-02-10T12:06:03;101446.69;;;6.39;56.21
40574;BME280;26283;49.020;8.644;2023-02-10T12:17:24;101432.72;;;6.45;55.93
40574;BME280;26283;49.020;8.644;2023-02-10T12:25:37;101426.66;;;6.53;55.84
40574;BME280;26283;49.020;8.644;2023-02-10T12:34:26;101419.06;;;6.58;55.77
40574;BME280;26283;49.020;8.644;2023-02-10T12:37:23;101418.91;;;6.60;55.75
40574;BME280;26283;49.020;8.644;2023-02-10T12:48:01;101422.88;;;6.65;55.71
40574;BME280;26283;49.020;8.644;2023-02-10T12:51:17;101418.22;;;6.67;55.70
40574;BME280;26283;49.020;8.644;2023-02-10T12:53:42;101425.28;;;6.68;55.68
40574;BME280;26283;49.020;8.644;2023-02-10T12:58:45;101424.97;;;6.71;55.64
40574;BME280;26283;49.020;8.644;2023-02-10T13:01:33;101401.56;;;6.73;55.63
40574;BME280;26283;49.020;8.644;2023-02-10T13:04:13;101404.94;;;6.75;55.59
40574;BME280;26283;49.020;8.644;2023-02-10T13:06:53;101403.97;;;6.76;55.57
40574;BME280;26283;49.020;8.644;2023-02-10T13:12:27;101399.16;;;6.80;55.52
40574;BME280;26283;49.020;8.644;2023-02-10T13:15:05;101394.50;;;6.82;55.50
40574;BME280;26283;49.020;8.644;2023-02-10T13:17:41;101396.22;;;6.83;55.48
40574;BME280;26283;49.020;8.644;2023-02-10T13:20:22;101391.56;;;6.85;55.47
40574;BME280;26283;49.020;8.644;2023-02-10T13:25:54;101398.47;;;6.87;55.43
40574;BME280;26283;49.020;8.644;2023-02-10T13:28:28;101396.50;;;6.90;55.41
40574;BME280;26283;49.020;8.644;2023-02-10T13:36:23;101391.53;;;6.95;55.37
40574;BME280;26283;49.020;8.644;2023-02-10T13:39:00;101390.69;;;6.94;55.34
40574;BME280;26283;49.020;8.644;2023-02-10T13:41:33;101394.06;;;6.96;55.31
40574;BME280;26283;49.020;8.644;2023-02-10T13:44:27;101390.41;;;6.97;55.30
40574;BME280;26283;49.020;8.644;2023-02-10T13:49:36;101399.00;;;7.01;55.22
40574;BME280;26283;49.020;8.644;2023-02-10T13:52:15;101394.47;;;7.01;55.22
40574;BME280;26283;49.020;8.644;2023-02-10T13:57:35;101395.19;;;7.03;55.20
40574;BME280;26283;49.020;8.644;2023-02-10T14:00:23;101400.41;;;7.05;55.18
40574;BME280;26283;49.020;8.644;2023-02-10T14:05:50;101401.81;;;7.09;55.16
40574;BME280;26283;49.020;8.644;2023-02-10T14:08:43;101394.47;;;7.11;55.16
40574;BME280;26283;49.020;8.644;2023-02-10T14:13:56;101400.56;;;7.13;55.12
40574;BME280;26283;49.020;8.644;2023-02-10T14:19:04;101394.88;;;7.16;55.12
40574;BME280;26283;49.020;8.644;2023-02-10T14:21:38;101389.50;;;7.16;55.10
40574;BME280;26283;49.020;8.644;2023-02-10T14:24:12;101395.56;;;7.18;55.06
40574;BME280;26283;49.020;8.644;2023-02-10T14:26:42;101393.59;;;7.20;55.05
40574;BME280;26283;49.020;8.644;2023-02-10T14:29:12;101389.06;;;7.20;55.05
40574;BME280;26283;49.020;8.644;2023-02-10T14:31:39;101389.63;;;7.24;55.05
40574;BME280;26283;49.020;8.644;2023-02-10T14:34:34;101395.00;;;7.24;55.01
40574;BME280;26283;49.020;8.644;2023-02-10T14:37:03;101394.00;;;7.25;54.96
40574;BME280;26283;49.020;8.644;2023-02-10T14:39:36;101389.34;;;7.27;54.97
40574;BME280;26283;49.020;8.644;2023-02-10T14:42:04;101389.22;;;7.29;54.97
40574;BME280;26283;49.020;8.644;2023-02-10T14:44:41;101386.53;;;7.29;54.91
40574;BME280;26283;49.020;8.644;2023-02-10T14:47:19;101382.72;;;7.31;54.88
40574;BME280;26283;49.020;8.644;2023-02-10T14:49:54;101378.19;;;7.32;54.86